createdAt,value
2018-03-03T00:00:33.381Z,103.95
2018-03-03T00:03:01.867Z,89.37
2018-03-03T00:05:30.037Z,94.82
2018-03-03T00:07:58.212Z,87.35
2018-03-03T00:10:26.079Z,92.10
2018-03-03T00:12:53.946Z,96.68
2018-03-03T00:15:21.813Z,92.25
2018-03-03T00:17:49.681Z,84.47
2018-03-03T00:20:17.547Z,86.28
2018-03-03T00:22:45.414Z,80.82
2018-03-03T00:25:13.283Z,83.72
2018-03-03T00:27:41.149Z,84.40
2018-03-03T00:30:09.017Z,81.30
2018-03-03T00:32:36.886Z,78.22
2018-03-03T00:35:04.751Z,86.10
2018-03-03T00:37:32.618Z,78.07
2018-03-03T00:40:00.491Z,73.47
2018-03-03T00:42:28.354Z,81.93
2018-03-03T00:44:56.221Z,83.20
2018-03-03T00:47:24.088Z,87.32
2018-03-03T00:49:51.955Z,81.63
2018-03-03T00:52:19.822Z,81.00
2018-03-03T00:54:47.690Z,79.85
2018-03-03T00:57:15.568Z,80.80
2018-03-03T00:59:43.424Z,80.68
2018-03-03T01:02:11.394Z,88.50
2018-03-03T01:04:39.262Z,83.35
2018-03-03T01:07:07.129Z,87.43
2018-03-03T01:09:34.996Z,86.55
2018-03-03T01:12:02.864Z,87.25
2018-03-03T01:14:30.731Z,87.32
2018-03-03T01:16:58.598Z,81.45
2018-03-03T01:19:26.466Z,84.95
2018-03-03T01:21:54.333Z,80.07
2018-03-03T01:24:22.201Z,89.13
2018-03-03T01:26:50.068Z,77.37
2018-03-03T01:29:17.934Z,80.22
2018-03-03T01:31:45.803Z,80.50
2018-03-03T01:34:13.671Z,75.60
2018-03-03T01:36:41.537Z,81.35
2018-03-03T01:39:09.405Z,85.60
2018-03-03T01:41:37.271Z,87.68
2018-03-03T01:44:05.143Z,75.35
2018-03-03T01:46:33.009Z,81.03
2018-03-03T01:49:00.874Z,84.70
2018-03-03T01:51:40.516Z,101.18
2018-03-03T01:54:08.384Z,86.63
2018-03-03T01:56:36.252Z,83.75
2018-03-03T01:59:04.119Z,84.60
2018-03-03T02:01:31.988Z,89.70
2018-03-03T02:03:59.854Z,90.87
2018-03-03T02:06:27.721Z,89.78
2018-03-03T02:08:56.408Z,93.00
2018-03-03T02:11:24.277Z,82.68
2018-03-03T02:13:52.143Z,95.60
2018-03-03T02:16:20.010Z,89.13
2018-03-03T02:18:47.876Z,86.97
2018-03-03T02:21:15.744Z,88.40
2018-03-03T02:23:43.611Z,84.65
2018-03-03T02:26:11.478Z,84.62
2018-03-03T02:28:39.349Z,82.15
2018-03-03T02:31:07.213Z,84.30
2018-03-03T02:33:35.080Z,93.25
2018-03-03T02:36:02.947Z,91.25
2018-03-03T02:38:30.815Z,96.25
2018-03-03T02:40:58.683Z,97.00
2018-03-03T02:43:26.550Z,90.28
2018-03-03T02:45:54.418Z,89.15
2018-03-03T02:48:22.286Z,94.03
2018-03-03T02:50:50.153Z,109.22
2018-03-03T02:53:18.035Z,90.43
2018-03-03T02:55:45.887Z,101.20
2018-03-03T02:58:13.757Z,92.07
2018-03-03T03:00:41.621Z,92.45
2018-03-03T03:03:09.491Z,89.90
2018-03-03T03:05:37.356Z,88.00
2018-03-03T03:08:05.223Z,86.57
2018-03-03T03:10:33.091Z,95.75
2018-03-03T03:13:00.961Z,90.65
2018-03-03T03:15:28.826Z,92.45
2018-03-03T03:17:56.694Z,85.65
2018-03-03T03:20:24.562Z,93.47
2018-03-03T03:22:52.939Z,76.12
2018-03-03T03:25:20.807Z,94.53
2018-03-03T03:27:48.673Z,96.03
2018-03-03T03:30:16.542Z,84.00
2018-03-03T03:32:44.410Z,95.55
2018-03-03T03:35:12.275Z,88.72
2018-03-03T03:37:40.143Z,88.43
2018-03-03T03:40:08.011Z,86.97
2018-03-03T03:42:35.878Z,95.20
2018-03-03T03:45:03.746Z,92.68
2018-03-03T03:47:31.614Z,93.15
2018-03-03T03:49:59.480Z,96.35
2018-03-03T03:52:27.348Z,90.55
2018-03-03T03:54:55.214Z,94.47
2018-03-03T03:57:23.109Z,90.25
2018-03-03T03:59:50.949Z,91.75
2018-03-03T04:02:18.816Z,97.55
2018-03-03T04:04:46.683Z,92.12
2018-03-03T04:07:14.551Z,94.82
2018-03-03T04:09:42.418Z,83.25
2018-03-03T04:12:10.286Z,90.97
2018-03-03T04:14:38.152Z,97.10
2018-03-03T04:17:06.020Z,92.45
2018-03-03T04:19:33.888Z,94.82
2018-03-03T04:22:01.757Z,101.72
2018-03-03T04:24:29.622Z,100.32
2018-03-03T04:26:58.412Z,94.03
2018-03-03T04:29:26.207Z,93.82
2018-03-03T04:31:54.145Z,95.50
2018-03-03T04:34:22.014Z,92.72
2018-03-03T04:36:49.880Z,91.80
2018-03-03T04:39:17.749Z,97.45
2018-03-03T04:41:45.615Z,98.37
2018-03-03T04:44:13.482Z,85.90
2018-03-03T04:46:41.349Z,100.28
2018-03-03T04:49:09.235Z,89.97
2018-03-03T04:51:37.083Z,93.37
2018-03-03T04:54:04.952Z,92.95
2018-03-03T04:56:32.818Z,96.78
2018-03-03T04:59:02.529Z,96.78
2018-03-03T05:01:36.061Z,94.53
2018-03-03T05:04:19.563Z,104.10
2018-03-03T05:07:04.122Z,99.43
2018-03-03T05:09:31.989Z,103.35
2018-03-03T05:12:01.122Z,100.60
2018-03-03T05:14:35.439Z,99.15
2018-03-03T05:17:06.957Z,89.03
2018-03-03T05:19:49.673Z,100.15
2018-03-03T05:22:20.416Z,95.47
2018-03-03T05:24:55.956Z,97.43
2018-03-03T05:27:41.640Z,98.55
2018-03-03T05:30:27.326Z,95.80
2018-03-03T05:33:00.825Z,97.72
2018-03-03T05:35:34.325Z,101.53
2018-03-03T05:38:04.916Z,92.85
2018-03-03T05:40:38.559Z,87.62
2018-03-03T05:43:11.992Z,98.05
2018-03-03T05:45:46.274Z,99.93
2018-03-03T05:48:29.808Z,94.53
2018-03-03T05:51:03.207Z,90.68
2018-03-03T05:53:36.705Z,94.15
2018-03-03T05:56:11.228Z,92.43
2018-03-03T05:58:44.766Z,93.50
2018-03-03T06:01:15.359Z,97.45
2018-03-03T06:03:58.075Z,94.25
2018-03-03T06:06:25.879Z,86.70
2018-03-03T06:08:57.292Z,97.07
2018-03-03T06:11:25.161Z,98.70
2018-03-03T06:13:53.026Z,101.57
2018-03-03T06:16:21.098Z,98.07
2018-03-03T06:18:49.278Z,99.62
2018-03-03T06:21:17.141Z,96.12
2018-03-03T06:23:45.009Z,103.32
2018-03-03T06:26:12.874Z,98.65
2018-03-03T06:28:40.742Z,97.97
2018-03-03T06:31:08.610Z,106.68
2018-03-03T06:33:36.477Z,96.63
2018-03-03T06:36:04.344Z,98.15
2018-03-03T06:38:32.211Z,89.85
2018-03-03T06:41:00.079Z,95.05
2018-03-03T06:43:27.946Z,97.40
2018-03-03T06:45:55.814Z,93.43
2018-03-03T06:48:23.681Z,97.20
2018-03-03T06:53:48.036Z,105.20
2018-03-03T06:56:18.389Z,91.72
2018-03-03T06:58:48.270Z,101.78
2018-03-03T07:01:18.922Z,91.57
2018-03-03T07:03:46.724Z,91.63
2018-03-03T07:06:14.592Z,91.47
2018-03-03T07:08:42.357Z,91.60
2018-03-03T07:11:10.766Z,98.55
2018-03-03T07:13:38.639Z,98.22
2018-03-03T07:16:07.302Z,100.80
2018-03-03T07:18:35.158Z,101.03
2018-03-03T07:21:03.025Z,91.03
2018-03-03T07:23:30.845Z,87.65
2018-03-03T07:25:58.657Z,97.68
2018-03-03T07:28:26.626Z,94.62
2018-03-03T07:30:54.493Z,92.03
2018-03-03T07:33:22.362Z,86.12
2018-03-03T07:35:50.157Z,89.55
2018-03-03T07:38:17.994Z,87.28
2018-03-03T07:40:45.860Z,96.70
2018-03-03T07:43:13.661Z,99.53
2018-03-03T07:45:42.210Z,99.20
2018-03-03T07:48:09.975Z,94.18
2018-03-03T07:50:37.843Z,95.57
2018-03-03T07:53:05.567Z,88.47
2018-03-03T07:55:33.372Z,92.85
2018-03-03T07:58:01.169Z,96.25
2018-03-03T08:00:29.755Z,91.43
2018-03-03T08:02:58.408Z,89.03
2018-03-03T08:05:26.202Z,95.03
2018-03-03T08:07:54.120Z,102.55
2018-03-03T08:10:22.010Z,92.43
2018-03-03T08:12:49.894Z,87.85
2018-03-03T08:15:17.744Z,93.93
2018-03-03T08:17:45.611Z,90.53
2018-03-03T08:20:13.478Z,79.97
2018-03-03T08:22:41.349Z,97.53
2018-03-03T08:25:09.214Z,87.75
2018-03-03T08:27:37.082Z,90.87
2018-03-03T08:30:04.949Z,88.62
2018-03-03T08:32:32.816Z,88.50
2018-03-03T08:35:00.684Z,87.57
2018-03-03T08:37:28.550Z,91.90
2018-03-03T08:39:56.417Z,94.37
2018-03-03T08:42:24.284Z,92.60
2018-03-03T08:44:54.966Z,85.10
2018-03-03T08:47:22.988Z,92.00
2018-03-03T08:49:50.858Z,89.50
2018-03-03T08:52:18.723Z,96.20
2018-03-03T08:54:46.590Z,92.97
2018-03-03T08:57:14.470Z,100.38
2018-03-03T08:59:42.325Z,82.20
2018-03-03T09:02:10.191Z,93.93
2018-03-03T09:04:38.058Z,90.75
2018-03-03T09:07:05.927Z,89.07
2018-03-03T09:09:33.793Z,102.05
2018-03-03T09:12:01.664Z,99.35
2018-03-03T09:14:29.528Z,92.10
2018-03-03T09:16:57.395Z,92.43
2018-03-03T09:19:25.263Z,95.20
2018-03-03T09:21:53.128Z,96.37
2018-03-03T09:24:20.998Z,94.45
2018-03-03T09:26:48.864Z,96.15
2018-03-03T09:29:16.732Z,93.87
2018-03-03T09:31:44.599Z,87.75
2018-03-03T09:34:12.467Z,91.15
2018-03-03T09:36:40.333Z,87.90
2018-03-03T09:39:08.201Z,101.28
2018-03-03T09:41:36.068Z,95.90
2018-03-03T09:44:03.936Z,94.47
2018-03-03T09:46:31.803Z,107.40
2018-03-03T09:48:59.674Z,93.12
2018-03-03T09:51:27.543Z,89.65
2018-03-03T09:53:55.405Z,93.43
2018-03-03T09:56:23.584Z,96.37
2018-03-03T09:58:51.499Z,94.90
2018-03-03T10:01:20.133Z,90.50
2018-03-03T10:03:48.001Z,92.45
2018-03-03T10:06:15.868Z,91.30
2018-03-03T10:08:43.736Z,91.95
2018-03-03T10:11:11.603Z,90.95
2018-03-03T10:13:39.471Z,88.57
2018-03-03T10:16:07.336Z,87.80
2018-03-03T10:18:35.205Z,90.05
2018-03-03T10:21:03.071Z,99.82
2018-03-03T10:23:30.939Z,83.43
2018-03-03T10:25:58.806Z,92.25
2018-03-03T10:28:26.673Z,95.22
2018-03-03T10:30:54.540Z,87.70
2018-03-03T10:33:22.408Z,92.70
2018-03-03T10:35:50.275Z,103.10
2018-03-03T10:38:18.143Z,94.32
2018-03-03T10:40:46.009Z,96.55
2018-03-03T10:43:13.877Z,100.10
2018-03-03T10:45:41.744Z,95.43
2018-03-03T10:48:09.612Z,86.30
2018-03-03T10:50:37.541Z,89.80
2018-03-03T10:53:06.166Z,97.50
2018-03-03T10:55:34.032Z,93.28
2018-03-03T10:58:01.900Z,91.22
2018-03-03T11:00:29.768Z,87.60
2018-03-03T11:02:57.635Z,88.65
2018-03-03T11:05:25.430Z,96.60
2018-03-03T11:07:54.188Z,106.18
2018-03-03T11:10:22.063Z,99.93
2018-03-03T11:12:49.923Z,87.43
2018-03-03T11:15:17.793Z,93.12
2018-03-03T11:17:45.659Z,84.95
2018-03-03T11:20:13.520Z,86.72
2018-03-03T11:22:41.392Z,99.25
2018-03-03T11:25:09.258Z,88.72
2018-03-03T11:27:37.129Z,88.12
2018-03-03T11:30:04.995Z,93.45
2018-03-03T11:32:32.863Z,84.93
2018-03-03T11:35:00.728Z,86.20
2018-03-03T11:37:28.597Z,88.70
2018-03-03T11:39:56.462Z,89.20
2018-03-03T11:42:24.329Z,84.28
2018-03-03T11:44:52.197Z,90.30
2018-03-03T11:47:20.064Z,86.18
2018-03-03T11:49:47.933Z,91.57
2018-03-03T11:52:15.799Z,87.03
2018-03-03T11:54:43.522Z,84.05
2018-03-03T11:57:11.329Z,83.07
2018-03-03T11:59:39.299Z,81.57
2018-03-03T12:02:07.169Z,86.90
2018-03-03T12:04:35.033Z,102.70
2018-03-03T12:07:02.901Z,91.72
2018-03-03T12:09:30.767Z,89.87
2018-03-03T12:11:58.636Z,90.90
2018-03-03T12:14:26.502Z,99.70
2018-03-03T12:16:54.373Z,100.10
2018-03-03T12:19:22.177Z,82.37
2018-03-03T12:21:50.822Z,88.93
2018-03-03T12:24:18.689Z,86.07
2018-03-03T12:26:46.559Z,92.70
2018-03-03T12:29:14.424Z,87.22
2018-03-03T12:31:42.294Z,83.93
2018-03-03T12:34:11.336Z,90.70
2018-03-03T12:36:39.458Z,88.75
2018-03-03T12:39:07.259Z,90.82
2018-03-03T12:41:35.968Z,88.82
2018-03-03T12:44:04.596Z,85.93
2018-03-03T12:46:32.465Z,83.50
2018-03-03T12:49:00.331Z,81.15
2018-03-03T12:51:28.199Z,90.15
2018-03-03T12:53:56.066Z,82.12
2018-03-03T12:56:23.933Z,85.97
2018-03-03T12:58:51.802Z,77.70
2018-03-03T13:01:19.668Z,85.95
2018-03-03T13:03:47.536Z,85.25
2018-03-03T13:06:15.404Z,81.70
2018-03-03T13:08:43.271Z,85.30
2018-03-03T13:11:11.137Z,77.22
2018-03-03T13:13:39.005Z,82.57
2018-03-03T13:16:06.872Z,77.32
2018-03-03T13:18:34.739Z,80.50
2018-03-03T13:21:02.606Z,81.10
2018-03-03T13:26:04.588Z,80.28
2018-03-03T13:28:32.470Z,79.72
2018-03-03T13:31:00.323Z,82.75
2018-03-03T13:33:28.190Z,84.18
2018-03-03T13:35:56.057Z,80.35
2018-03-03T13:38:23.925Z,79.60
2018-03-03T13:40:51.792Z,90.00
2018-03-03T13:43:19.662Z,77.80
2018-03-03T13:45:47.526Z,72.70
2018-03-03T13:48:15.395Z,75.45
2018-03-03T13:50:44.186Z,79.68
2018-03-03T13:53:12.050Z,71.35
2018-03-03T13:55:39.922Z,77.87
2018-03-03T13:58:07.785Z,82.05
2018-03-03T14:00:35.652Z,77.22
2018-03-03T14:03:03.519Z,77.07
2018-03-03T14:05:31.388Z,74.32
2018-03-03T14:07:59.254Z,72.85
2018-03-03T14:10:26.979Z,76.12
2018-03-03T14:12:54.726Z,78.60
2018-03-03T14:15:23.367Z,72.25
2018-03-03T14:17:51.242Z,73.40
2018-03-03T14:20:19.105Z,70.97
2018-03-03T14:22:46.971Z,72.20
2018-03-03T14:25:14.840Z,77.18
2018-03-03T14:27:42.704Z,69.15
2018-03-03T14:30:10.573Z,84.10
2018-03-03T14:32:38.439Z,79.50
2018-03-03T14:35:06.306Z,79.72
2018-03-03T14:37:34.173Z,70.53
2018-03-03T14:40:02.041Z,80.95
2018-03-03T14:42:29.907Z,74.37
2018-03-03T14:44:57.775Z,77.03
2018-03-03T14:47:25.649Z,75.32
2018-03-03T14:49:53.510Z,76.65
2018-03-03T14:52:21.377Z,74.90
2018-03-03T14:54:49.244Z,75.07
2018-03-03T14:57:17.112Z,76.80
2018-03-03T14:59:44.979Z,80.80
2018-03-03T15:02:12.846Z,74.95
2018-03-03T15:04:40.713Z,74.90
2018-03-03T15:07:08.581Z,78.03
2018-03-03T15:09:36.551Z,79.93
2018-03-03T15:12:04.417Z,77.25
2018-03-03T15:14:32.285Z,78.43
2018-03-03T15:17:00.152Z,70.87
2018-03-03T15:19:28.019Z,74.05
2018-03-03T15:21:55.887Z,79.45
2018-03-03T15:24:23.754Z,85.75
2018-03-03T15:26:51.623Z,77.47
2018-03-03T15:29:19.489Z,73.70
2018-03-03T15:31:47.356Z,77.65
2018-03-03T15:34:15.223Z,75.18
2018-03-03T15:36:43.090Z,80.30
2018-03-03T15:39:10.959Z,71.30
2018-03-03T15:41:38.825Z,78.40
2018-03-03T15:44:06.693Z,86.63
2018-03-03T15:46:34.560Z,85.95
2018-03-03T15:49:02.427Z,86.20
2018-03-03T15:51:30.294Z,76.18
2018-03-03T15:53:58.161Z,87.18
2018-03-03T15:56:26.066Z,84.62
2018-03-03T15:58:54.718Z,92.00
2018-03-03T16:01:22.583Z,81.75
2018-03-03T16:03:50.477Z,81.63
2018-03-03T16:06:18.317Z,85.15
2018-03-03T16:08:46.184Z,85.53
2018-03-03T16:11:14.052Z,88.60
2018-03-03T16:13:41.923Z,80.25
2018-03-03T16:16:09.787Z,82.57
2018-03-03T16:18:37.654Z,86.75
2018-03-03T16:21:05.522Z,88.07
2018-03-03T16:23:33.388Z,78.75
2018-03-03T16:26:01.256Z,82.22
2018-03-03T16:28:29.122Z,84.20
2018-03-03T16:30:56.990Z,87.85
2018-03-03T16:33:24.858Z,79.78
2018-03-03T16:35:52.724Z,93.00
2018-03-03T16:38:20.592Z,86.43
2018-03-03T16:40:48.459Z,77.62
2018-03-03T16:43:16.327Z,84.18
2018-03-03T16:45:44.194Z,81.50
2018-03-03T16:48:12.062Z,82.30
2018-03-03T16:50:39.928Z,83.12
2018-03-03T16:53:07.796Z,80.43
2018-03-03T16:55:36.483Z,82.37
2018-03-03T16:58:04.350Z,83.65
2018-03-03T17:00:32.220Z,84.00
2018-03-03T17:03:00.108Z,81.95
2018-03-03T17:05:28.874Z,78.93
2018-03-03T17:07:56.740Z,88.82
2018-03-03T17:10:24.608Z,83.45
2018-03-03T17:12:52.475Z,85.90
2018-03-03T17:15:20.286Z,88.05
2018-03-03T17:17:49.746Z,90.28
2018-03-03T17:20:17.613Z,85.78
2018-03-03T17:22:45.481Z,83.47
2018-03-03T17:25:13.348Z,84.70
2018-03-03T17:27:43.466Z,94.78
2018-03-03T17:30:11.437Z,87.90
2018-03-03T17:32:39.308Z,87.65
2018-03-03T17:35:07.069Z,93.03
2018-03-03T17:37:34.937Z,88.53
2018-03-03T17:40:03.009Z,99.47
2018-03-03T17:42:30.876Z,89.03
2018-03-03T17:44:58.771Z,97.72
2018-03-03T17:47:27.432Z,92.68
2018-03-03T17:49:55.400Z,92.65
2018-03-03T17:52:23.267Z,94.32
2018-03-03T17:54:51.032Z,109.05
2018-03-03T17:57:18.894Z,110.12
2018-03-03T17:59:47.586Z,89.62
2018-03-03T18:02:15.556Z,93.85
2018-03-03T18:04:43.423Z,88.20
2018-03-03T18:07:11.289Z,95.03
2018-03-03T18:09:39.157Z,89.55
2018-03-03T18:12:07.288Z,98.65
2018-03-03T18:14:35.097Z,85.32
2018-03-03T18:17:02.965Z,88.25
2018-03-03T18:19:33.905Z,89.65
2018-03-03T18:22:03.415Z,89.50
2018-03-03T18:24:36.777Z,92.47
2018-03-03T18:27:04.677Z,91.85
2018-03-03T18:29:32.543Z,100.07
2018-03-03T18:32:00.408Z,98.15
2018-03-03T18:34:28.276Z,95.05
2018-03-03T18:36:56.147Z,100.47
2018-03-03T18:39:24.050Z,80.28
2018-03-03T18:41:52.696Z,95.00
2018-03-03T18:44:20.564Z,89.90
2018-03-03T18:46:48.431Z,89.25
2018-03-03T18:49:16.298Z,91.35
2018-03-03T18:51:44.168Z,94.30
2018-03-03T18:54:12.034Z,87.07
2018-03-03T18:56:39.901Z,89.43
2018-03-03T18:59:10.628Z,104.90
2018-03-03T19:01:39.733Z,93.07
2018-03-03T19:04:07.604Z,103.22
2018-03-03T19:06:35.570Z,102.45
2018-03-03T19:09:03.492Z,94.97
2018-03-03T19:11:32.122Z,97.15
2018-03-03T19:13:59.991Z,97.12
2018-03-03T19:16:27.857Z,96.65
2018-03-03T19:18:55.724Z,93.15
2018-03-03T19:21:23.592Z,100.18
2018-03-03T19:23:51.460Z,101.53
2018-03-03T19:26:19.326Z,100.82
2018-03-03T19:28:47.197Z,96.35
2018-03-03T19:31:15.810Z,103.03
2018-03-03T19:33:44.465Z,96.78
2018-03-03T19:36:12.334Z,94.80
2018-03-03T19:38:40.302Z,102.12
2018-03-03T19:41:08.169Z,96.35
2018-03-03T19:43:36.040Z,94.93
2018-03-03T19:46:03.904Z,95.22
2018-03-03T19:48:31.772Z,103.30
2018-03-03T19:50:59.650Z,110.28
2018-03-03T19:53:27.507Z,101.28
2018-03-03T19:55:55.373Z,102.12
2018-03-03T19:58:23.241Z,98.85
2018-03-03T20:00:51.108Z,102.82
2018-03-03T20:03:18.991Z,117.03
2018-03-03T20:05:46.843Z,103.80
2018-03-03T20:08:14.710Z,106.03
2018-03-03T20:10:42.578Z,97.95
2018-03-03T20:13:10.445Z,113.32
2018-03-03T20:15:38.311Z,97.18
2018-03-03T20:18:06.183Z,103.95
2018-03-03T20:20:34.048Z,102.35
2018-03-03T20:23:01.916Z,116.72
2018-03-03T20:25:29.782Z,98.60
2018-03-03T20:27:57.650Z,96.10
2018-03-03T20:30:25.521Z,106.90
2018-03-03T20:32:53.389Z,112.35
2018-03-03T20:35:21.252Z,98.95
2018-03-03T20:37:49.118Z,93.70
2018-03-03T20:40:16.986Z,96.85
2018-03-03T20:42:44.961Z,108.68
2018-03-03T20:45:12.823Z,101.80
2018-03-03T20:47:40.695Z,101.05
2018-03-03T20:50:08.461Z,114.82
2018-03-03T20:52:36.323Z,117.43
2018-03-03T20:55:04.293Z,110.90
2018-03-03T20:57:32.159Z,110.40
2018-03-03T21:00:00.028Z,109.70
2018-03-03T21:02:27.893Z,110.55
2018-03-03T21:04:55.762Z,104.60
2018-03-03T21:07:23.628Z,114.80
2018-03-03T21:09:52.419Z,100.78
2018-03-03T21:12:20.285Z,96.90
2018-03-03T21:14:48.151Z,96.50
2018-03-03T21:17:16.019Z,102.95
2018-03-03T21:19:43.886Z,105.12
2018-03-03T21:22:11.765Z,112.07
2018-03-03T21:24:39.619Z,102.82
2018-03-03T21:27:07.488Z,97.18
2018-03-03T21:29:35.358Z,90.68
2018-03-03T21:32:03.222Z,102.32
2018-03-03T21:34:31.095Z,103.68
2018-03-03T21:36:58.959Z,108.12
2018-03-03T21:39:26.827Z,101.25
2018-03-03T21:41:54.699Z,106.05
2018-03-03T21:44:22.600Z,103.05
2018-03-03T21:46:51.246Z,116.15
2018-03-03T21:49:19.045Z,108.45
2018-03-03T21:51:47.697Z,113.30
2018-03-03T21:54:15.565Z,109.97
2018-03-03T21:56:43.435Z,107.60
2018-03-03T21:59:11.300Z,103.22
2018-03-03T22:01:39.270Z,113.03
2018-03-03T22:04:07.651Z,105.45
2018-03-03T22:06:38.522Z,109.20
2018-03-03T22:09:06.455Z,101.30
2018-03-03T22:11:34.323Z,106.35
2018-03-03T22:14:02.190Z,108.90
2018-03-03T22:16:30.056Z,106.82
2018-03-03T22:18:57.925Z,104.20
2018-03-03T22:21:25.792Z,106.75
2018-03-03T22:23:53.658Z,125.12
2018-03-03T22:26:21.527Z,108.63
2018-03-03T22:28:49.396Z,103.87
2018-03-03T22:31:17.261Z,115.20
2018-03-03T22:33:45.129Z,112.07
2018-03-03T22:36:12.996Z,108.68
2018-03-03T22:38:40.862Z,110.47
2018-03-03T22:41:08.730Z,112.90
2018-03-03T22:43:36.598Z,116.70
2018-03-03T22:46:04.464Z,109.10
2018-03-03T22:48:32.332Z,103.50
2018-03-03T22:51:00.200Z,114.37
2018-03-03T22:53:28.072Z,100.93
2018-03-03T22:55:55.936Z,98.15
2018-03-03T22:58:23.801Z,101.78
2018-03-03T23:00:51.672Z,102.57
2018-03-03T23:03:19.536Z,98.72
2018-03-03T23:05:47.404Z,106.20
2018-03-03T23:08:15.272Z,111.57
2018-03-03T23:10:43.958Z,105.03
2018-03-03T23:13:11.825Z,104.25
2018-03-03T23:15:39.692Z,104.68
2018-03-03T23:18:07.562Z,108.32
2018-03-03T23:20:35.426Z,111.15
2018-03-03T23:23:03.294Z,108.40
2018-03-03T23:25:31.162Z,106.53
2018-03-03T23:27:59.028Z,101.97
2018-03-03T23:30:26.896Z,114.57
2018-03-03T23:32:54.762Z,100.50
2018-03-03T23:35:22.631Z,104.22
2018-03-03T23:37:50.497Z,104.35
2018-03-03T23:40:18.364Z,100.28
2018-03-03T23:42:46.240Z,112.37
2018-03-03T23:45:14.100Z,105.93
2018-03-03T23:47:41.966Z,104.40
2018-03-03T23:50:09.834Z,109.10
2018-03-03T23:52:37.703Z,117.30
2018-03-03T23:55:05.569Z,112.70
2018-03-03T23:57:33.436Z,116.45
